Nederlandse vliegveldverwachtingen (TAF)

Luchtvaartmeteorologische informatie voor operationeel gebruik en vluchtvoorbereiding is beschikbaar op www.luchtvaartmeteo.nl.

ZCZC
FC102100 EHKD     DE KOOY/DE KOOY   NLD   1 m.
TAF EHKD 102100Z NIL=

ZCZC
FC102100 EHGR     GILZE-RIJEN/GILZE-RIJEN   NLD   14 m.
TAF EHGR 102100Z NIL=

ZCZC
FC102100 EHLW     LEEUWARDEN/LEEUWARDEN   NLD   1 m.
TAF EHLW 102032Z 1021/1109 VRB02KT CAVOK
    PROB40 1022/1106 4000 BR MIFG
    BECMG 1106/1109 08007KT=

ZCZC
FC102100 EHVK     VOLKEL/VOLKEL   NLD   21 m.
TAF EHVK 102031Z 1021/1109 VRB02KT CAVOK
    PROB30 1022/1106 4000 BR MIFG=

ZCZC
FC102100 EHWO     WOENSDRECHT/WOENSDRECHT   NLD   19 m.
TAF EHWO 102100Z NIL=

ZCZC
FT102300 EHLE     LELYSTAD/LELYSTAD   NLD   -3 m.
TAF EHLE 102258Z 1100/1206 VRB03KT CAVOK
    BECMG 1106/1108 05007KT 9999 SCT025
    TEMPO 1111/1120 VRB14KT 6000 SHRA SCT020CB
    BECMG 1118/1121 24007KT CAVOK=

ZCZC
FT102300 EHAM     AMSTERDAM/SCHIPHOL   NLD   -3 m.
TAF EHAM 102258Z 1100/1206 VRB03KT CAVOK
    BECMG 1106/1108 05007KT 9999 SCT025
    TEMPO 1111/1120 VRB14KT 6000 SHRA SCT020CB
    BECMG 1118/1121 24007KT CAVOK=

ZCZC
FT102300 EHRD     ROTTERDAM/THE HAGUE AIRPORT   NLD   -5 m.
TAF EHRD 102258Z 1100/1206 VRB03KT CAVOK
    BECMG 1106/1108 05007KT 9999 SCT025
    TEMPO 1111/1120 VRB14KT 6000 SHRA SCT020CB
    BECMG 1118/1121 24007KT CAVOK=

ZCZC
FT102300 EHGG     GRONINGEN/EELDE   NLD   5 m.
TAF EHGG 102309Z 1100/1206 VRB03KT CAVOK
    PROB40 TEMPO 1100/1119 4000 SHRA SCT008 BKN012 SCT030CB
    BECMG 1106/1109 09011KT
    BECMG 1115/1118 02007KT
    PROB40 TEMPO 1116/1203 BKN006
    PROB40 1200/1205 0400 BCFG VV001
    BECMG 1203/1206 25010KT=

ZCZC
FT102300 EHBK     MAASTRICHT/MAASTRICHT-AACHEN   NLD   114 m.
TAF COR EHBK 102317Z 1100/1206 21007KT 9999 BKN040
    PROB40 TEMPO 1100/1121 4000 SHRA SCT030CB
    BECMG 1115/1118 26010KT
    PROB30 TEMPO 1117/1121 25015G25KT 2500 TSRA
    PROB30 1121/1124 BKN012=

ZCZC
FT102300 EHEH     EINDHOVEN/EINDHOVEN   NLD   22 m.
TAF EHEH 102312Z 1100/1206 VRB02KT CAVOK
    PROB30 1102/1106 4000 BR MIFG
    TEMPO 1110/1120 VRB05G15KT 4500 -SHRA SCT025CB
    PROB30 TEMPO 1112/1120 3000 TSRA SCT024CB
    BECMG 1120/1122 25007KT=

11/05/2021 02.15 uur LT